CDT,Max TemperatureF,Mean TemperatureF,Min TemperatureF,Max Dew PointF,MeanDew PointF,Min DewpointF,Max Humidity, Mean Humidity, Min Humidity, Max Sea Level PressureIn, Mean Sea Level PressureIn, Min Sea Level PressureIn, Max VisibilityMiles, Mean VisibilityMiles, Min VisibilityMiles, Max Wind SpeedMPH, Mean Wind SpeedMPH, Max Gust SpeedMPH,PrecipitationIn, CloudCover, Events, WindDirDegrees
2014-6-1,71,66,62,66,61,57,88,83,68,29.93,29.83,29.73,10,9,2,23,11,29,2.78,7,Thunderstorm,159
2014-6-2,78,70,60,61,57,50,88,67,44,29.94,29.80,29.72,10,10,7,28,14,34,0.12,4,,270
2014-6-3,73,64,55,57,54,50,88,69,44,30.03,29.94,29.79,10,10,10,17,7,,0.05,2,,247
2014-6-4,78,69,60,57,55,54,82,62,42,29.93,29.86,29.74,10,10,4,12,7,,0.00,3,,73
2014-6-5,69,64,60,57,56,52,82,72,56,29.95,29.91,29.85,10,10,5,21,9,25,0.03,3,,175
2014-6-6,86,72,59,63,56,52,94,61,31,29.95,29.92,29.89,10,8,1,10,5,16,0.00,2,Thunderstorm,266
2014-6-7,69,62,53,57,53,50,88,76,60,30.08,29.99,29.89,10,10,10,18,10,24,0.01,6,Thunderstorm,358
2014-6-8,73,62,50,52,43,37,88,54,27,30.14,30.08,30.02,10,9,0,13,7,21,0.00,2,,26
2014-6-9,69,63,57,52,50,45,77,63,52,30.06,30.00,29.96,10,10,10,15,7,21,0.00,7,,24
2014-6-10,78,66,53,55,52,48,88,62,41,29.97,29.91,29.85,10,10,5,12,5,,0.00,3,,95
2014-6-11,82,70,57,57,51,48,82,50,30,29.89,29.80,29.71,10,10,10,15,7,20,0.00,3,,185
2014-6-12,69,61,53,57,45,39,77,54,33,30.04,29.92,29.74,10,10,10,26,17,32,0.05,3,,317
2014-6-13,75,62,50,41,37,19,62,40,24,30.08,30.01,29.89,10,10,10,16,7,17,0.00,0,,238
2014-6-14,69,63,57,57,50,37,82,62,35,29.93,29.79,29.63,10,10,5,33,16,44,0.50,4,Thunderstorm,130
2014-6-15,75,67,59,61,55,48,88,66,38,29.88,29.70,29.45,10,10,5,24,14,29,0.47,4,Thunderstorm,220
2014-6-16,77,68,59,64,57,52,82,71,53,29.92,29.83,29.63,10,9,1,44,13,58,2.21,3,Thunderstorm,157
2014-6-17,78,69,60,70,62,55,83,76,65,29.83,29.79,29.65,10,10,9,26,13,34,0.19,6,,120
2014-6-18,82,74,66,72,66,57,88,74,53,29.86,29.82,29.74,10,10,6,23,10,29,0.01,4,Thunderstorm,121
2014-6-19,75,70,66,68,65,63,88,81,73,29.97,29.88,29.78,10,9,0,31,16,40,0.58,7,Thunderstorm,140
2014-6-20,84,74,64,64,60,46,94,64,28,29.99,29.94,29.87,10,7,0,17,8,22,0.00,2,,199
2014-6-21,86,77,68,64,61,57,83,60,37,29.94,29.91,29.86,10,10,10,13,7,,0.00,0,,119
2014-6-22,78,72,66,64,62,59,83,70,54,29.91,29.85,29.80,10,10,10,20,7,24,0.24,3,,268
2014-6-23,78,71,64,64,59,55,88,65,44,29.93,29.89,29.84,10,10,10,14,6,16,0.00,1,,313
2014-6-24,82,71,60,59,56,54,77,58,37,29.99,29.95,29.93,10,10,10,12,7,16,0.00,2,,306
2014-6-25,80,71,62,59,57,55,77,62,42,30.06,30.02,29.99,10,10,10,8,5,,0.00,2,,349
2014-6-26,82,72,62,68,62,57,88,73,51,30.03,29.93,29.86,10,10,9,32,9,43,0.05,2,Thunderstorm,128
2014-6-27,78,72,66,70,65,61,88,75,57,29.88,29.80,29.75,10,10,10,26,14,33,0.01,5,,158
2014-6-28,80,73,64,70,66,55,88,76,65,29.79,29.73,29.68,10,10,7,25,15,31,0.14,5,Thunderstorm,170
2014-6-29,82,71,60,66,61,55,83,70,48,29.85,29.78,29.73,10,10,9,21,11,29,0.05,2,Thunderstorm,202
2014-6-30,77,72,66,64,60,48,88,71,38,29.78,29.70,29.63,10,10,10,14,7,21,0.03,2,,237